Time;durP1;ratioP1;P1;durP2;ratioP2;P2;SDS_P1;SDS_P2;PMS_P1;PMS_P2;Temp;Humidity;BMP_temperature;BMP_pressure;BME280_temperature;BME280_humidity;BME280_pressure;Samples;Min_cycle;Max_cycle;Signal;HPM_P1;HPM_P2
2022/05/27 00:01:49;;;;;;;2.58;2.38;;;;;;;14.84;nan;99117.34;4993472;28;20034;-61
2022/05/27 00:04:14;;;;;;;2.95;2.03;;;;;;;14.73;nan;99121.94;4992560;28;20034;-61
2022/05/27 00:06:40;;;;;;;2.67;1.90;;;;;;;14.71;nan;99123.75;4989560;28;20041;-61
2022/05/27 00:09:05;;;;;;;2.08;1.98;;;;;;;14.75;nan;99127.94;4989504;28;20057;-61
2022/05/27 00:11:30;;;;;;;2.38;1.85;;;;;;;14.71;nan;99123.75;4993573;28;20034;-61
2022/05/27 00:13:56;;;;;;;3.22;2.00;;;;;;;14.68;nan;99124.69;4991745;28;20425;-60
2022/05/27 00:16:21;;;;;;;2.40;2.20;;;;;;;14.69;nan;99110.88;4988097;28;20042;-61
2022/05/27 00:18:47;;;;;;;6.18;2.08;;;;;;;14.65;nan;99104.09;4991179;28;20045;-60
2022/05/27 00:21:13;;;;;;;2.53;1.52;;;;;;;14.74;nan;99105.59;4993382;28;20508;-60
2022/05/27 00:23:39;;;;;;;1.85;1.75;;;;;;;14.68;nan;99109.19;4991084;28;20042;-59
2022/05/27 00:26:06;;;;;;;3.53;2.13;;;;;;;14.70;nan;99103.97;4987479;28;20037;-60
2022/05/27 00:28:31;;;;;;;3.95;2.03;;;;;;;14.78;nan;99109.75;4994455;28;20025;-59
2022/05/27 00:30:57;;;;;;;3.17;1.90;;;;;;;14.75;nan;99105.53;4997546;28;20475;-60
2022/05/27 00:33:23;;;;;;;3.53;2.38;;;;;;;14.72;nan;99097.06;4992634;28;20074;-60
2022/05/27 00:35:49;;;;;;;1.90;1.80;;;;;;;14.75;nan;99102.13;4992585;28;20300;-59
2022/05/27 00:38:15;;;;;;;2.00;1.90;;;;;;;14.74;nan;99095.25;4997254;28;20033;-61
2022/05/27 00:40:44;;;;;;;1.77;1.77;;;;;;;14.64;nan;99092.94;4998368;28;20026;-61
2022/05/27 00:43:10;;;;;;;2.13;1.73;;;;;;;14.76;nan;99104.66;4991987;28;20030;-61
2022/05/27 00:45:38;;;;;;;3.65;2.10;;;;;;;14.71;nan;99097.94;4991201;28;20138;-61
2022/05/27 00:48:07;;;;;;;2.42;1.70;;;;;;;14.58;nan;99093.13;4995913;28;20034;-60
2022/05/27 00:50:40;;;;;;;2.42;2.20;;;;;;;14.54;nan;99091.50;4995995;28;20030;-61
2022/05/27 00:53:08;;;;;;;2.20;1.50;;;;;;;14.52;nan;99092.44;5006156;28;20078;-61
2022/05/27 00:55:46;;;;;;;2.42;2.22;;;;;;;14.40;nan;99095.34;4992214;28;20112;-60
2022/05/27 00:58:21;;;;;;;3.28;2.03;;;;;;;14.43;nan;99098.69;4996908;28;20057;-61
2022/05/27 01:00:47;;;;;;;4.88;2.25;;;;;;;14.37;nan;99090.28;4993757;28;20041;-59
2022/05/27 01:03:15;;;;;;;3.03;2.25;;;;;;;14.35;nan;99086.84;4990458;28;20075;-61
2022/05/27 01:05:44;;;;;;;3.83;2.20;;;;;;;14.24;nan;99089.72;4993666;28;20564;-59
2022/05/27 01:08:12;;;;;;;2.30;2.20;;;;;;;14.29;nan;99087.88;4994822;28;20030;-60
2022/05/27 01:11:13;;;;;;;2.53;2.33;;;;;;;14.32;nan;99090.34;4992935;28;20157;-59
2022/05/27 01:13:49;;;;;;;2.20;2.10;;;;;;;14.24;nan;99092.31;4990877;28;20053;-60
2022/05/27 01:16:23;;;;;;;1.98;1.80;;;;;;;14.12;nan;99092.63;4995166;28;20519;-59
2022/05/27 01:22:08;;;;;;;2.35;1.98;;;;;;;14.10;nan;99071.19;4991564;28;20049;-60
2022/05/27 01:24:51;;;;;;;3.92;2.13;;;;;;;14.09;nan;99079.78;4993074;28;20030;-60
2022/05/27 01:27:45;;;;;;;2.33;1.83;;;;;;;14.15;nan;99082.22;4995019;28;20112;-60
2022/05/27 01:30:16;;;;;;;2.25;1.92;;;;;;;14.10;nan;99084.91;4991325;28;20026;-60
2022/05/27 01:33:00;;;;;;;2.20;2.00;;;;;;;14.12;nan;99083.16;5005254;28;20248;-60
2022/05/27 01:35:39;;;;;;;3.83;2.40;;;;;;;14.07;nan;99079.84;4995390;28;20049;-59
2022/05/27 01:38:17;;;;;;;2.60;2.40;;;;;;;13.87;nan;99068.34;4993342;28;20033;-62
2022/05/27 01:40:58;;;;;;;3.40;2.00;;;;;;;13.87;nan;99068.34;4990259;28;20117;-61
2022/05/27 01:43:26;;;;;;;2.05;1.85;;;;;;;13.77;nan;99065.16;4994617;28;20089;-61
2022/05/27 01:46:08;;;;;;;2.00;1.90;;;;;;;13.67;nan;99068.81;4993041;28;20036;-61
2022/05/27 01:48:33;;;;;;;2.75;2.55;;;;;;;13.66;nan;99065.41;4990761;28;20124;-61
2022/05/27 01:51:46;;;;;;;1.85;1.75;;;;;;;13.68;nan;99055.91;4990994;28;20425;-60
2022/05/27 01:54:53;;;;;;;3.10;2.28;;;;;;;13.71;nan;99044.69;4932833;29;20106;-60
2022/05/27 01:57:25;;;;;;;3.40;2.38;;;;;;;13.72;nan;99067.00;4930057;29;20035;-62
2022/05/27 02:00:06;;;;;;;1.92;1.83;;;;;;;13.60;nan;99059.56;4930255;29;20449;-60
2022/05/27 02:02:37;;;;;;;3.90;2.20;;;;;;;13.61;nan;99056.13;4933587;29;20047;-60
2022/05/27 02:05:13;;;;;;;2.30;2.10;;;;;;;13.46;nan;99049.59;4931150;29;20032;-60
2022/05/27 02:07:45;;;;;;;2.05;1.92;;;;;;;13.45;nan;99063.34;4928727;29;20044;-60
2022/05/27 02:10:25;;;;;;;4.53;2.70;;;;;;;13.44;nan;99053.94;4930422;29;20035;-60
2022/05/27 02:13:00;;;;;;;2.53;2.25;;;;;;;13.42;nan;99047.97;4932476;29;20078;-60
2022/05/27 02:15:31;;;;;;;3.10;2.03;;;;;;;13.34;nan;99049.03;4931942;29;20111;-63
2022/05/27 02:18:03;;;;;;;4.15;2.30;;;;;;;13.30;nan;99053.41;4928973;29;20455;-60
2022/05/27 02:20:35;;;;;;;2.85;2.55;;;;;;;13.25;nan;99055.25;4932652;29;20577;-59
2022/05/27 02:23:09;;;;;;;4.28;2.10;;;;;;;13.30;nan;99055.13;4932059;29;20051;-60
2022/05/27 02:25:41;;;;;;;3.75;2.22;;;;;;;13.25;nan;99058.66;4930008;29;20446;-60
2022/05/27 02:28:13;;;;;;;2.53;2.30;;;;;;;13.31;nan;99060.25;4960668;28;20121;-60
2022/05/27 02:30:44;;;;;;;2.38;2.17;;;;;;;13.32;nan;99061.13;4993155;28;20034;-60
2022/05/27 02:36:05;;;;;;;5.38;2.30;;;;;;;13.21;nan;99051.03;4989342;28;20068;-61
2022/05/27 02:38:31;;;;;;;2.15;1.80;;;;;;;13.21;nan;99061.34;4990163;28;20038;-60
2022/05/27 02:41:03;;;;;;;4.25;2.22;;;;;;;13.23;nan;99063.03;4993599;28;20037;-61
2022/05/27 02:43:37;;;;;;;2.00;1.90;;;;;;;13.18;nan;99061.41;4990684;28;20036;-60
2022/05/27 02:46:21;;;;;;;1.80;1.70;;;;;;;13.19;nan;99060.53;4992746;28;20182;-60
2022/05/27 02:49:06;;;;;;;1.90;1.80;;;;;;;13.19;nan;99055.41;4992457;28;20082;-60
2022/05/27 02:51:56;;;;;;;2.28;2.00;;;;;;;13.30;nan;99065.44;4992832;28;20042;-60
2022/05/27 02:54:34;;;;;;;2.03;1.80;;;;;;;13.34;nan;99065.34;4990127;28;20038;-60
2022/05/27 02:57:20;;;;;;;2.03;1.80;;;;;;;13.39;nan;99065.22;4989223;28;20108;-60
2022/05/27 02:59:46;;;;;;;2.80;2.30;;;;;;;13.34;nan;99055.03;4994696;28;20590;-60
2022/05/27 03:02:14;;;;;;;2.63;2.03;;;;;;;13.47;nan;99059.00;4995024;28;20034;-61
2022/05/27 03:04:44;;;;;;;2.40;1.90;;;;;;;13.53;nan;99061.47;4992388;28;20036;-61
2022/05/27 03:07:41;;;;;;;6.32;2.30;;;;;;;13.52;nan;99058.91;4995098;28;20068;-60
2022/05/27 03:10:35;;;;;;;1.90;1.80;;;;;;;13.58;nan;99053.59;4973948;28;20038;-61
2022/05/27 03:13:44;;;;;;;2.00;1.90;;;;;;;13.44;nan;99046.22;4967438;28;20184;-60
2022/05/27 03:16:30;;;;;;;2.05;1.95;;;;;;;13.45;nan;99057.38;4968864;28;20150;-61
2022/05/27 03:19:06;;;;;;;2.60;2.20;;;;;;;13.44;nan;99059.09;4970687;28;20130;-60
2022/05/27 03:22:01;;;;;;;2.78;1.98;;;;;;;13.47;nan;99066.75;4971713;28;20102;-60
2022/05/27 03:24:43;;;;;;;5.95;1.92;;;;;;;13.40;nan;99062.63;4973092;28;20046;-61
2022/05/27 03:27:08;;;;;;;4.72;1.95;;;;;;;13.50;nan;99065.81;4971970;28;20156;-61
2022/05/27 03:29:57;;;;;;;4.07;2.10;;;;;;;13.58;nan;99058.75;4972059;28;20055;-62
2022/05/27 03:32:47;;;;;;;1.88;1.77;;;;;;;13.65;nan;99062.88;4956052;28;20083;-61
2022/05/27 03:35:24;;;;;;;4.18;2.13;;;;;;;13.63;nan;99062.91;4970520;28;20048;-60
2022/05/27 03:37:59;;;;;;;2.05;1.65;;;;;;;13.67;nan;99054.22;4972447;28;20098;-61
2022/05/27 03:40:30;;;;;;;2.45;2.28;;;;;;;13.69;nan;99057.63;4971331;28;20053;-61
2022/05/27 03:42:57;;;;;;;4.63;1.98;;;;;;;13.64;nan;99058.59;4966937;28;20722;-61
2022/05/27 03:45:23;;;;;;;3.75;2.90;;;;;;;13.69;nan;99059.34;4970166;28;20045;-61
2022/05/27 03:47:50;;;;;;;2.30;2.10;;;;;;;13.72;nan;99054.97;4989048;28;20070;-60
2022/05/27 03:50:19;;;;;;;2.08;1.88;;;;;;;13.73;nan;99048.94;4988464;28;20245;-61
2022/05/27 03:52:48;;;;;;;2.25;2.08;;;;;;;13.85;nan;99060.66;4988245;28;20436;-61
2022/05/27 03:55:17;;;;;;;4.63;2.35;;;;;;;13.82;nan;99053.00;4991541;28;20464;-61
2022/05/27 03:57:42;;;;;;;6.28;3.05;;;;;;;13.83;nan;99059.88;4993381;28;20548;-61
2022/05/27 04:00:11;;;;;;;2.63;1.65;;;;;;;13.76;nan;99053.16;4989032;28;20038;-61
2022/05/27 04:02:37;;;;;;;4.50;1.73;;;;;;;13.88;nan;99059.72;4992009;28;20101;-61
2022/05/27 04:05:04;;;;;;;1.88;1.67;;;;;;;13.86;nan;99053.78;4995698;28;20545;-61
2022/05/27 04:07:30;;;;;;;1.67;1.58;;;;;;;13.86;nan;99056.34;4996736;28;20037;-61
2022/05/27 04:09:55;;;;;;;2.25;1.80;;;;;;;13.95;nan;99067.28;4991989;28;20491;-61
2022/05/27 04:12:21;;;;;;;1.77;1.67;;;;;;;13.95;nan;99062.13;4993048;28;20543;-66
2022/05/27 04:14:53;;;;;;;2.65;1.92;;;;;;;14.03;nan;99067.06;4997072;28;20463;-61
2022/05/27 04:17:30;;;;;;;1.92;1.73;;;;;;;14.07;nan;99069.53;4995436;28;20038;-61
2022/05/27 04:19:56;;;;;;;2.00;1.90;;;;;;;14.17;nan;99068.38;4992149;28;20034;-60
2022/05/27 04:22:21;;;;;;;1.88;1.77;;;;;;;14.26;nan;99069.06;4992591;28;20461;-61
2022/05/27 04:24:47;;;;;;;3.70;1.90;;;;;;;14.41;nan;99068.66;4993043;28;20098;-62
2022/05/27 04:27:15;;;;;;;1.75;1.65;;;;;;;14.47;nan;99059.00;4994271;28;20605;-61
2022/05/27 04:29:45;;;;;;;3.35;1.40;;;;;;;14.60;nan;99073.25;4999399;28;20030;-61
2022/05/27 04:32:11;;;;;;;2.05;1.50;;;;;;;14.58;nan;99064.72;4993439;28;20469;-61
2022/05/27 04:34:37;;;;;;;2.33;1.73;;;;;;;14.65;nan;99070.56;4995993;28;20034;-60
2022/05/27 04:37:03;;;;;;;1.98;1.88;;;;;;;14.78;nan;99065.88;4993356;28;20366;-60
2022/05/27 04:39:28;;;;;;;1.90;1.80;;;;;;;14.88;nan;99077.66;4992143;28;20031;-61
2022/05/27 04:41:53;;;;;;;2.90;1.75;;;;;;;14.97;nan;99067.06;4996389;28;20030;-61
2022/05/27 04:44:19;;;;;;;2.53;1.90;;;;;;;15.12;nan;99073.47;4995357;28;20030;-61
2022/05/27 04:46:45;;;;;;;1.95;1.63;;;;;;;15.18;nan;99073.31;5000220;28;20034;-60
2022/05/27 04:51:58;;;;;;;3.83;1.50;;;;;;;15.24;nan;99078.28;4996389;28;20401;-61
2022/05/27 04:54:23;;;;;;;1.98;1.88;;;;;;;15.16;nan;99068.19;4994477;28;20041;-61
2022/05/27 04:56:49;;;;;;;1.58;1.58;;;;;;;15.11;nan;99057.13;4991719;28;20038;-60
2022/05/27 04:59:15;;;;;;;1.55;1.45;;;;;;;15.12;nan;99068.31;4993103;28;20041;-59
2022/05/27 05:01:40;;;;;;;2.03;1.92;;;;;;;15.13;nan;99070.00;4995464;28;20553;-60
2022/05/27 05:04:06;;;;;;;2.00;1.63;;;;;;;15.09;nan;99062.38;4994843;28;20392;-61
2022/05/27 05:06:31;;;;;;;2.10;1.30;;;;;;;15.07;nan;99061.56;4990199;28;20034;-59
2022/05/27 05:08:57;;;;;;;2.20;1.60;;;;;;;15.11;nan;99053.75;4992333;28;20034;-61
2022/05/27 05:11:23;;;;;;;2.25;1.30;;;;;;;15.13;nan;99054.50;4995277;28;20364;-61
2022/05/27 05:13:48;;;;;;;1.58;1.45;;;;;;;15.19;nan;99044.81;4992606;28;20040;-61
2022/05/27 05:16:13;;;;;;;2.35;1.70;;;;;;;15.39;nan;99058.00;4991376;28;20061;-61
2022/05/27 05:18:39;;;;;;;2.78;1.70;;;;;;;15.54;nan;99042.03;4992988;28;20042;-59
2022/05/27 05:21:04;;;;;;;2.70;2.20;;;;;;;15.78;nan;99042.13;4993389;28;20035;-61
2022/05/27 05:23:30;;;;;;;2.70;1.83;;;;;;;16.08;nan;99035.06;5007056;28;20516;-61
2022/05/27 05:25:55;;;;;;;1.98;1.73;;;;;;;16.33;nan;99033.31;4990977;28;20034;-61
2022/05/27 05:28:21;;;;;;;1.92;1.65;;;;;;;16.59;nan;99032.41;4993960;28;20034;-61
2022/05/27 05:30:47;;;;;;;3.95;2.33;;;;;;;16.74;nan;99029.22;4995008;28;20393;-61
2022/05/27 05:33:12;;;;;;;1.98;1.88;;;;;;;16.98;nan;99036.06;4992116;28;20321;-61
2022/05/27 05:35:38;;;;;;;3.22;1.58;;;;;;;17.16;nan;99043.13;4991843;28;20053;-61
2022/05/27 05:38:04;;;;;;;2.25;2.10;;;;;;;17.25;nan;99041.94;4991390;28;20353;-61
2022/05/27 05:40:30;;;;;;;2.05;1.95;;;;;;;17.35;nan;99023.34;4993779;28;20026;-61
2022/05/27 05:42:55;;;;;;;2.00;1.90;;;;;;;17.50;nan;99042.63;5005639;28;20038;-61
2022/05/27 05:45:21;;;;;;;1.88;1.80;;;;;;;17.64;nan;99030.00;4991576;28;20536;-62
2022/05/27 05:47:47;;;;;;;3.05;2.80;;;;;;;17.85;nan;99028.25;4990622;28;20034;-61
2022/05/27 05:50:13;;;;;;;2.55;2.08;;;;;;;17.93;nan;99015.81;4993845;28;20471;-61
2022/05/27 05:52:39;;;;;;;2.70;2.45;;;;;;;18.00;nan;99014.63;4992274;28;20529;-61
2022/05/27 05:55:05;;;;;;;1.88;1.60;;;;;;;18.18;nan;99018.19;4990770;28;20036;-64
2022/05/27 05:57:31;;;;;;;2.28;2.00;;;;;;;18.47;nan;99016.88;4989878;28;20054;-61
2022/05/27 05:59:59;;;;;;;1.90;1.80;;;;;;;18.57;nan;99021.66;4992650;28;20035;-61
2022/05/27 06:02:25;;;;;;;2.00;1.90;;;;;;;18.63;nan;99017.91;4991463;28;20040;-61
2022/05/27 06:04:50;;;;;;;2.17;2.03;;;;;;;18.75;nan;99012.19;4990767;28;20034;-60
2022/05/27 06:07:16;;;;;;;4.28;2.10;;;;;;;18.87;nan;99015.97;4993169;28;20427;-59
2022/05/27 06:09:41;;;;;;;1.98;1.88;;;;;;;18.86;nan;99024.66;4992333;28;20156;-56
2022/05/27 06:12:08;;;;;;;2.10;1.90;;;;;;;18.92;nan;99027.00;4990566;28;20026;-61
2022/05/27 06:14:35;;;;;;;2.53;1.88;;;;;;;18.98;nan;99009.34;4991218;28;20038;-61
2022/05/27 06:17:00;;;;;;;3.05;1.83;;;;;;;19.17;nan;99023.19;4991835;28;20033;-61
2022/05/27 06:19:26;;;;;;;2.25;1.90;;;;;;;19.31;nan;99019.88;4990649;28;20400;-59
2022/05/27 06:21:51;;;;;;;2.40;1.60;;;;;;;19.32;nan;99003.38;4991980;28;20347;-60
2022/05/27 06:24:17;;;;;;;2.13;1.95;;;;;;;19.55;nan;99002.31;4989669;28;20030;-60
2022/05/27 06:26:43;;;;;;;3.22;1.90;;;;;;;19.81;nan;99012.25;4992729;28;20050;-61
2022/05/27 06:34:36;;;;;;;2.67;1.75;;;;;;;20.22;nan;99002.31;4991014;28;20045;-59
2022/05/27 06:37:14;;;;;;;2.47;1.77;;;;;;;20.30;nan;98999.34;4992720;28;20475;-60
2022/05/27 06:39:41;;;;;;;2.35;1.90;;;;;;;20.34;nan;99008.69;4990876;28;20034;-60
2022/05/27 06:42:09;;;;;;;3.10;1.92;;;;;;;20.51;nan;99004.25;4990371;28;20041;-60
2022/05/27 06:44:36;;;;;;;4.43;1.80;;;;;;;20.44;nan;99002.06;4993342;28;20498;-60
2022/05/27 06:47:02;;;;;;;1.73;1.63;;;;;;;20.62;nan;98993.28;4992490;28;20488;-60
2022/05/27 06:49:27;;;;;;;1.73;1.63;;;;;;;20.66;nan;98996.56;4988658;28;20209;-60
2022/05/27 06:51:53;;;;;;;1.95;1.65;;;;;;;20.80;nan;99000.06;4989973;28;20034;-60
2022/05/27 06:54:19;;;;;;;1.75;1.65;;;;;;;21.02;nan;98986.72;4992667;28;20460;-62
2022/05/27 06:56:49;;;;;;;1.92;1.83;;;;;;;21.29;nan;98984.34;4992919;28;20034;-59
2022/05/27 06:59:16;;;;;;;1.45;1.45;;;;;;;21.41;nan;98975.84;4988927;28;20049;-61
2022/05/27 07:01:42;;;;;;;1.73;1.58;;;;;;;21.50;nan;98980.53;4992226;28;20041;-60
2022/05/27 07:04:08;;;;;;;1.90;1.80;;;;;;;21.46;nan;98976.41;4993558;28;20034;-60
2022/05/27 07:06:37;;;;;;;3.08;1.55;;;;;;;21.67;nan;98969.09;4992227;28;20033;-61
2022/05/27 07:09:05;;;;;;;2.15;1.52;;;;;;;21.80;nan;98950.03;4990423;28;20044;-60
2022/05/27 07:11:30;;;;;;;3.20;1.60;;;;;;;21.86;nan;98954.88;4993890;28;20455;-60
2022/05/27 07:13:56;;;;;;;1.65;1.60;;;;;;;21.71;nan;98958.41;4992543;28;20033;-60
2022/05/27 07:16:21;;;;;;;1.67;1.58;;;;;;;21.83;nan;98956.81;4990896;28;20037;-60
2022/05/27 07:18:47;;;;;;;2.88;1.60;;;;;;;21.33;nan;98963.22;4988018;28;20068;-60
2022/05/27 07:21:13;;;;;;;2.35;1.58;;;;;;;21.36;nan;98936.13;4991845;28;20613;-59
2022/05/27 07:23:39;;;;;;;3.00;1.30;;;;;;;21.53;nan;98940.34;4991860;28;20034;-60
2022/05/27 07:26:04;;;;;;;2.65;1.48;;;;;;;21.69;nan;98941.13;4990755;28;20104;-60
2022/05/27 07:28:30;;;;;;;1.50;1.38;;;;;;;21.94;nan;98943.19;4990109;28;20094;-60
2022/05/27 07:30:56;;;;;;;1.73;1.40;;;;;;;22.02;nan;98935.72;4993258;28;20447;-60
2022/05/27 07:33:22;;;;;;;1.10;1.10;;;;;;;22.12;nan;98927.22;4991496;28;20392;-60
2022/05/27 07:35:48;;;;;;;2.50;1.45;;;;;;;22.37;nan;98928.31;4989944;28;20030;-60
2022/05/27 07:38:13;;;;;;;5.57;1.67;;;;;;;22.42;nan;98929.72;4987437;28;20425;-60
2022/05/27 07:40:40;;;;;;;1.63;1.20;;;;;;;22.54;nan;98942.00;4992465;28;20109;-60
2022/05/27 07:43:08;;;;;;;4.57;1.83;;;;;;;22.61;nan;98942.47;4994382;28;20049;-60
2022/05/27 07:45:40;;;;;;;1.77;1.67;;;;;;;22.47;nan;98937.25;4988021;28;20034;-60
2022/05/27 07:48:06;;;;;;;3.90;1.55;;;;;;;22.62;nan;98929.28;4990489;28;20038;-60
2022/05/27 07:50:32;;;;;;;1.30;1.30;;;;;;;22.77;nan;98919.69;4993243;28;20308;-60
2022/05/27 07:52:58;;;;;;;2.55;1.88;;;;;;;22.71;nan;98933.13;4993055;28;20041;-60
2022/05/27 07:55:23;;;;;;;1.73;1.60;;;;;;;22.53;nan;98932.47;4987432;28;20081;-60
2022/05/27 07:57:49;;;;;;;2.10;1.65;;;;;;;22.44;nan;98943.53;4990618;28;20036;-60
2022/05/27 08:00:17;;;;;;;1.52;1.42;;;;;;;22.37;nan;98931.75;4993564;28;20556;-60
2022/05/27 08:02:43;;;;;;;1.45;1.35;;;;;;;22.68;nan;98928.91;4990980;28;20030;-60
2022/05/27 08:05:15;;;;;;;2.03;1.92;;;;;;;22.58;nan;98919.97;4986469;28;20381;-60
2022/05/27 08:07:40;;;;;;;2.08;1.45;;;;;;;22.49;nan;98936.22;4990571;28;20084;-60
2022/05/27 08:10:07;;;;;;;1.27;1.25;;;;;;;22.50;nan;98926.59;4991901;28;20122;-60
2022/05/27 08:12:33;;;;;;;1.40;1.30;;;;;;;22.56;nan;98923.63;4987346;28;20379;-60
2022/05/27 08:14:59;;;;;;;1.40;1.30;;;;;;;22.72;nan;98916.50;4987449;28;20112;-60
2022/05/27 08:17:25;;;;;;;1.33;1.30;;;;;;;22.94;nan;98913.38;4991235;28;20133;-60
2022/05/27 08:19:52;;;;;;;1.95;1.40;;;;;;;23.31;nan;98904.78;4992352;28;20396;-60
2022/05/27 08:22:18;;;;;;;2.65;1.50;;;;;;;23.50;nan;98905.28;4988572;28;20034;-60
2022/05/27 08:24:44;;;;;;;1.80;1.42;;;;;;;23.55;nan;98905.78;4985531;28;20065;-60
2022/05/27 08:27:09;;;;;;;1.83;1.50;;;;;;;23.67;nan;98912.81;4990885;28;20141;-60
2022/05/27 08:29:35;;;;;;;1.67;1.58;;;;;;;23.50;nan;98907.88;4991653;28;20034;-58
2022/05/27 08:32:03;;;;;;;1.73;1.63;;;;;;;23.77;nan;98899.09;4988308;28;20042;-60
2022/05/27 08:40:27;;;;;;;2.58;1.60;;;;;;;24.30;nan;98901.47;4992464;28;20037;-59
2022/05/27 08:43:08;;;;;;;1.80;1.70;;;;;;;24.61;nan;98892.28;4988337;28;20370;-58
2022/05/27 08:45:49;;;;;;;1.75;1.65;;;;;;;24.80;nan;98892.59;4989866;28;20034;-60
2022/05/27 08:48:15;;;;;;;2.47;1.75;;;;;;;24.69;nan;98894.34;4992694;28;20117;-59
2022/05/27 08:50:52;;;;;;;1.88;1.77;;;;;;;24.44;nan;98896.06;4992572;28;20404;-60
2022/05/27 08:53:41;;;;;;;2.42;1.70;;;;;;;24.40;nan;98881.50;4990564;28;20476;-59
2022/05/27 09:01:51;;;;;;;2.22;2.03;;;;;;;24.39;nan;98881.66;4992359;28;20049;-60
2022/05/27 09:04:37;;;;;;;1.77;1.67;;;;;;;24.20;nan;98876.03;4993105;28;20030;-60
2022/05/27 09:07:15;;;;;;;2.65;1.55;;;;;;;23.94;nan;98878.66;4995193;28;20643;-60
2022/05/27 09:09:41;;;;;;;1.92;1.83;;;;;;;23.90;nan;98871.94;4992091;28;20112;-59
2022/05/27 09:12:33;;;;;;;1.60;1.50;;;;;;;23.81;nan;98859.50;5007266;28;20043;-60
2022/05/27 09:15:14;;;;;;;1.63;1.52;;;;;;;24.03;nan;98856.22;4996385;28;20041;-59
2022/05/27 09:17:54;;;;;;;1.90;1.42;;;;;;;24.24;nan;98867.84;4994225;28;20037;-59
2022/05/27 09:20:42;;;;;;;1.67;1.58;;;;;;;23.74;nan;98873.13;4991578;28;20045;-60
2022/05/27 09:23:23;;;;;;;3.55;1.50;;;;;;;23.91;nan;98857.06;4993764;28;20064;-60
2022/05/27 09:26:08;;;;;;;1.58;1.48;;;;;;;23.87;nan;98864.31;4995663;28;20476;-62
2022/05/27 09:29:11;;;;;;;1.63;1.50;;;;;;;24.01;nan;98848.47;4953938;28;20418;-59
2022/05/27 09:31:45;;;;;;;1.20;1.20;;;;;;;24.05;nan;98857.81;4952339;28;20034;-59
2022/05/27 09:34:12;;;;;;;2.35;1.67;;;;;;;23.89;nan;98845.88;4956237;28;20057;-61
2022/05/27 09:36:42;;;;;;;2.58;1.30;;;;;;;23.86;nan;98838.22;4954073;28;20031;-60
2022/05/27 09:39:14;;;;;;;2.45;1.63;;;;;;;23.67;nan;98843.91;4951896;28;20042;-60
2022/05/27 09:41:55;;;;;;;4.30;1.70;;;;;;;23.68;nan;98843.78;4954349;28;20039;-61
2022/05/27 09:44:39;;;;;;;2.53;1.65;;;;;;;23.69;nan;98836.78;4954556;28;20046;-60
2022/05/27 09:47:05;;;;;;;1.50;1.40;;;;;;;23.59;nan;98818.25;4952695;28;20046;-60
2022/05/27 09:49:32;;;;;;;1.92;1.67;;;;;;;23.67;nan;98820.34;4951876;28;20046;-60
2022/05/27 09:51:58;;;;;;;3.50;1.40;;;;;;;23.73;nan;98821.69;4955002;28;20034;-61
2022/05/27 09:54:34;;;;;;;1.80;1.70;;;;;;;23.86;nan;98814.66;4955771;28;20045;-58
2022/05/27 09:57:13;;;;;;;3.83;1.50;;;;;;;24.05;nan;98797.53;4952532;28;20568;-59
2022/05/27 09:59:48;;;;;;;1.75;1.58;;;;;;;24.23;nan;98792.78;4952082;28;20039;-60
2022/05/27 10:02:25;;;;;;;3.45;1.50;;;;;;;24.34;nan;98790.25;4957213;28;20037;-60
2022/05/27 10:05:14;;;;;;;3.35;1.60;;;;;;;24.42;nan;98787.06;4953818;28;20031;-58
2022/05/27 10:07:50;;;;;;;2.67;1.80;;;;;;;24.75;nan;98786.34;4954193;28;20047;-62
2022/05/27 10:10:28;;;;;;;2.05;1.88;;;;;;;24.57;nan;98778.91;4953139;28;20488;-62
2022/05/27 10:13:12;;;;;;;2.35;1.80;;;;;;;24.56;nan;98766.75;4955628;28;20476;-62
2022/05/27 10:15:38;;;;;;;2.00;1.90;;;;;;;24.55;nan;98772.94;4950809;28;20035;-57
2022/05/27 10:18:22;;;;;;;2.40;1.58;;;;;;;24.75;nan;98768.84;4949930;28;20283;-62
2022/05/27 10:21:01;;;;;;;2.28;2.05;;;;;;;24.68;nan;98756.31;4955455;28;20117;-60
2022/05/27 10:23:39;;;;;;;2.00;1.90;;;;;;;24.64;nan;98750.44;4953778;28;20038;-62
2022/05/27 10:26:27;;;;;;;2.80;1.80;;;;;;;24.73;nan;98751.56;4955637;28;20031;-63
2022/05/27 10:29:13;;;;;;;3.05;1.75;;;;;;;24.71;nan;98750.81;4991980;28;21030;-63
2022/05/27 10:31:55;;;;;;;1.73;1.63;;;;;;;24.84;nan;98739.28;4994263;28;20026;-61
2022/05/27 10:34:35;;;;;;;1.73;1.70;;;;;;;24.97;nan;98749.72;4988841;28;20041;-61
2022/05/27 10:37:18;;;;;;;3.00;1.52;;;;;;;24.77;nan;98759.09;4990178;28;20587;-61
2022/05/27 10:40:02;;;;;;;2.33;2.05;;;;;;;24.61;nan;98737.56;4993543;28;20038;-57
2022/05/27 10:42:54;;;;;;;2.28;1.80;;;;;;;24.90;nan;98732.78;4992090;28;20100;-61
2022/05/27 10:45:23;;;;;;;1.77;1.67;;;;;;;25.16;nan;98743.94;4988985;28;20041;-61
2022/05/27 10:48:04;;;;;;;1.60;1.50;;;;;;;25.09;nan;98726.97;4992014;28;20041;-61
2022/05/27 10:50:42;;;;;;;1.88;1.77;;;;;;;25.17;nan;98717.56;4994337;28;20038;-61
2022/05/27 10:53:14;;;;;;;2.17;1.98;;;;;;;25.05;nan;98715.03;4988181;28;20075;-62
2022/05/27 10:55:45;;;;;;;1.77;1.77;;;;;;;25.04;nan;98713.38;4988593;28;20030;-62
2022/05/27 11:04:29;;;;;;;3.53;1.77;;;;;;;25.84;nan;98699.97;4990164;28;20044;-62
2022/05/27 11:06:57;;;;;;;1.90;1.80;;;;;;;25.83;nan;98690.47;4993463;28;20096;-61
2022/05/27 11:09:41;;;;;;;2.13;1.85;;;;;;;26.00;nan;98683.00;4993260;28;20034;-59
2022/05/27 11:15:10;;;;;;;1.70;1.60;;;;;;;25.82;nan;98685.31;4988182;28;20122;-60
2022/05/27 11:15:57;;;;;;;3.00;2.13;;;;;;;25.68;nan;98680.31;4991566;28;20518;-61
2022/05/27 11:18:31;;;;;;;1.50;1.50;;;;;;;25.68;nan;98673.28;4971581;28;20046;-61
2022/05/27 11:21:15;;;;;;;1.70;1.60;;;;;;;25.72;nan;98671.22;4988924;28;20042;-61
2022/05/27 11:23:49;;;;;;;1.85;1.73;;;;;;;25.79;nan;98654.88;4990421;28;20034;-61
2022/05/27 11:26:54;;;;;;;1.65;1.65;;;;;;;25.96;nan;98653.50;4992889;28;20064;-60
2022/05/27 11:29:35;;;;;;;1.80;1.80;;;;;;;26.07;nan;98650.84;4990625;28;20412;-61
2022/05/27 11:32:05;;;;;;;2.00;1.90;;;;;;;26.23;nan;98647.81;4989076;28;20038;-61
2022/05/27 11:34:34;;;;;;;2.00;1.90;;;;;;;26.36;nan;98641.41;4992876;28;20199;-61
2022/05/27 11:37:20;;;;;;;1.92;1.83;;;;;;;26.40;nan;98641.13;4992994;28;20508;-61
2022/05/27 11:40:06;;;;;;;1.83;1.73;;;;;;;26.52;nan;98650.66;4990554;28;20065;-61
2022/05/27 11:42:45;;;;;;;3.22;2.10;;;;;;;26.62;nan;98633.13;4988850;28;20042;-61
2022/05/27 11:45:31;;;;;;;1.88;1.77;;;;;;;26.72;nan;98632.22;4991570;28;20111;-61
2022/05/27 11:48:06;;;;;;;3.28;1.92;;;;;;;26.98;nan;98624.78;4990711;28;20046;-60
2022/05/27 11:50:56;;;;;;;3.67;1.95;;;;;;;26.78;nan;98628.22;4988835;28;20124;-61
2022/05/27 11:53:40;;;;;;;2.05;1.88;;;;;;;26.47;nan;98613.38;4992720;28;20042;-60
2022/05/27 11:56:52;;;;;;;2.13;2.03;;;;;;;26.48;nan;98615.06;4992461;28;20107;-61
2022/05/27 11:59:23;;;;;;;2.25;2.15;;;;;;;26.28;nan;98603.56;4972833;28;20644;-61
2022/05/27 12:01:57;;;;;;;2.08;1.98;;;;;;;26.26;nan;98601.09;4990997;28;20038;-60
2022/05/27 12:04:32;;;;;;;3.45;2.35;;;;;;;26.20;nan;98598.13;4992352;28;20089;-60
2022/05/27 12:07:08;;;;;;;2.35;1.92;;;;;;;26.33;nan;98590.88;4991147;28;20080;-61
2022/05/27 12:09:52;;;;;;;2.20;2.10;;;;;;;26.12;nan;98593.47;4989921;28;20034;-60
2022/05/27 12:13:05;;;;;;;3.92;2.47;;;;;;;26.08;nan;98585.97;4994726;28;20029;-61
2022/05/27 12:15:38;;;;;;;1.90;1.80;;;;;;;25.86;nan;98566.72;4992108;28;20041;-61
2022/05/27 12:18:09;;;;;;;2.30;1.83;;;;;;;26.08;nan;98583.34;4988773;28;20030;-61
2022/05/27 12:20:37;;;;;;;1.65;1.55;;;;;;;25.96;nan;98565.97;4989452;28;20514;-61
2022/05/27 12:23:08;;;;;;;6.18;2.15;;;;;;;26.26;nan;98566.06;4996597;28;20053;-61
2022/05/27 12:25:42;;;;;;;1.80;1.70;;;;;;;26.33;nan;98572.47;4994006;28;20561;-61
2022/05/27 12:28:09;;;;;;;1.52;1.52;;;;;;;26.44;nan;98561.88;4992433;28;20061;-60
2022/05/27 12:30:42;;;;;;;2.13;2.03;;;;;;;26.37;nan;98550.22;4998311;28;20043;-61
2022/05/27 12:33:15;;;;;;;1.90;1.90;;;;;;;26.26;nan;98559.03;4995144;28;20161;-61
2022/05/27 12:35:48;;;;;;;2.03;1.90;;;;;;;26.04;nan;98548.59;4992419;28;20061;-60
2022/05/27 12:38:21;;;;;;;2.40;1.95;;;;;;;26.17;nan;98551.88;4997024;28;20634;-62
2022/05/27 12:40:50;;;;;;;1.80;1.70;;;;;;;26.06;nan;98548.47;4995758;28;20108;-61
2022/05/27 12:43:16;;;;;;;2.85;1.95;;;;;;;26.15;nan;98543.28;4995464;28;20107;-60
2022/05/27 12:45:48;;;;;;;2.80;2.00;;;;;;;25.98;nan;98546.47;4991814;28;20041;-61
2022/05/27 12:48:34;;;;;;;2.35;2.15;;;;;;;25.93;nan;98543.38;4993296;28;20038;-62
2022/05/27 12:51:01;;;;;;;1.80;1.70;;;;;;;26.12;nan;98533.03;4996201;28;20038;-61